Greenbrier Valley Airport
KLWB : now visible

Aeroporto :











RITROVATECI SU...

 
LOGIN :

Iscrizione | Disclaimer

   EN    FR    IT 

 









Sommario :    VFR   VFR Marginale   IFR   IFR Intensivo   IFR Molto Intensivo
Visibilità : 
Base nubi : 
>= 8 km
>= 3000ft
5 / 8 km
1000 / 3000 ft
1500m / 5 km
500 / 1000 ft
800 / 1500m
200 / 500 ft
< 800m
< 200 ft
Simboli :   Temporali  Nebbia  Neve Forte  Precipitazioni Forti  Vento > 20 kt






- Altitudine del aeroporto : 2302 ft


KLWB - Greenbrier Valley

ULTIMO METAR :
  • 072055Z 000000KT 10SM SKC 08/M08 A3030

METARs OBSOLETI :
  • 071955Z 23005KT 10SM SKC 08/M07 A3029
  • 071855Z 20003KT 10SM SKC 05/M12 A3029

TAF KLWB
Valido dal 07 a 18 ore il 08 a 18 ore UTC


071722Z 0718/0818 VRB03KT P6SM SKC
FM081500 04005KT P6SM SCT200



MetMap, La meteo Aeronautica in un colpo d'occhio ! - Copyright ORBIFLY Dicembre 2007 - Disclaimer

ORBIFLY MET'MAP TEAM :

Programmazione e sviluppo : Alexandra Zaïnal
Concezione : Baudouin d'Aumeries
Aiuto per la programmazione : Marc-Olivier Méhu
Supporto tecnico e logistico : Manuel Goepfert
Aiuto per la traduzione : Arnaldo La Scala

Contatto : metmap@orbifly.com




FONTI E CREDITI :

   NOAA       Earth
Advisory